sensor_id;sensor_type;location;lat;lon;timestamp;P1;durP1;ratioP1;P2;durP2;ratioP2
12122;SDS011;6125;59.628;17.852;2023-06-24T00:01:50;3.87;;;3.00;;
12122;SDS011;6125;59.628;17.852;2023-06-24T00:04:18;8.13;;;3.83;;
12122;SDS011;6125;59.628;17.852;2023-06-24T00:06:46;3.73;;;3.00;;
12122;SDS011;6125;59.628;17.852;2023-06-24T00:09:13;6.70;;;3.43;;
12122;SDS011;6125;59.628;17.852;2023-06-24T00:11:40;4.20;;;2.97;;
12122;SDS011;6125;59.628;17.852;2023-06-24T00:14:07;5.07;;;3.00;;
12122;SDS011;6125;59.628;17.852;2023-06-24T00:16:35;4.03;;;3.27;;
12122;SDS011;6125;59.628;17.852;2023-06-24T00:19:02;5.33;;;3.67;;
12122;SDS011;6125;59.628;17.852;2023-06-24T00:21:31;2.90;;;2.60;;
12122;SDS011;6125;59.628;17.852;2023-06-24T00:23:58;5.00;;;3.50;;
12122;SDS011;6125;59.628;17.852;2023-06-24T00:26:29;3.30;;;2.90;;
12122;SDS011;6125;59.628;17.852;2023-06-24T00:28:57;3.83;;;3.10;;
12122;SDS011;6125;59.628;17.852;2023-06-24T00:31:24;9.90;;;3.60;;
12122;SDS011;6125;59.628;17.852;2023-06-24T00:33:51;5.57;;;2.87;;
12122;SDS011;6125;59.628;17.852;2023-06-24T00:36:18;3.53;;;3.17;;
12122;SDS011;6125;59.628;17.852;2023-06-24T00:38:47;4.90;;;3.37;;
12122;SDS011;6125;59.628;17.852;2023-06-24T00:41:16;3.50;;;3.20;;
12122;SDS011;6125;59.628;17.852;2023-06-24T00:43:44;5.87;;;3.30;;
12122;SDS011;6125;59.628;17.852;2023-06-24T00:46:11;8.93;;;3.00;;
12122;SDS011;6125;59.628;17.852;2023-06-24T00:48:40;7.03;;;3.40;;
12122;SDS011;6125;59.628;17.852;2023-06-24T00:51:07;4.47;;;3.33;;
12122;SDS011;6125;59.628;17.852;2023-06-24T00:53:34;4.10;;;3.17;;
12122;SDS011;6125;59.628;17.852;2023-06-24T00:56:03;4.30;;;2.83;;
12122;SDS011;6125;59.628;17.852;2023-06-24T00:58:31;4.83;;;3.00;;
12122;SDS011;6125;59.628;17.852;2023-06-24T01:01:02;4.93;;;2.90;;
12122;SDS011;6125;59.628;17.852;2023-06-24T01:03:30;4.40;;;3.20;;
12122;SDS011;6125;59.628;17.852;2023-06-24T01:05:58;3.13;;;2.80;;
12122;SDS011;6125;59.628;17.852;2023-06-24T01:08:25;4.17;;;3.20;;
12122;SDS011;6125;59.628;17.852;2023-06-24T01:10:53;4.03;;;3.20;;
12122;SDS011;6125;59.628;17.852;2023-06-24T01:13:21;3.47;;;2.77;;
12122;SDS011;6125;59.628;17.852;2023-06-24T01:15:48;4.37;;;3.27;;
12122;SDS011;6125;59.628;17.852;2023-06-24T01:18:17;4.20;;;3.73;;
12122;SDS011;6125;59.628;17.852;2023-06-24T01:20:52;3.90;;;3.37;;
12122;SDS011;6125;59.628;17.852;2023-06-24T01:23:33;3.50;;;2.77;;
12122;SDS011;6125;59.628;17.852;2023-06-24T01:26:40;4.93;;;2.97;;
12122;SDS011;6125;59.628;17.852;2023-06-24T01:29:36;3.30;;;3.00;;
12122;SDS011;6125;59.628;17.852;2023-06-24T01:32:31;3.10;;;2.73;;
12122;SDS011;6125;59.628;17.852;2023-06-24T01:35:05;5.37;;;3.40;;
12122;SDS011;6125;59.628;17.852;2023-06-24T01:37:37;3.33;;;2.90;;
12122;SDS011;6125;59.628;17.852;2023-06-24T01:40:09;4.27;;;3.20;;
12122;SDS011;6125;59.628;17.852;2023-06-24T01:42:39;4.33;;;3.10;;
12122;SDS011;6125;59.628;17.852;2023-06-24T01:45:09;3.30;;;3.00;;
12122;SDS011;6125;59.628;17.852;2023-06-24T01:47:40;3.37;;;2.80;;
12122;SDS011;6125;59.628;17.852;2023-06-24T01:50:12;5.67;;;3.23;;
12122;SDS011;6125;59.628;17.852;2023-06-24T01:52:41;4.67;;;3.03;;
12122;SDS011;6125;59.628;17.852;2023-06-24T01:55:10;5.43;;;3.30;;
12122;SDS011;6125;59.628;17.852;2023-06-24T01:57:42;3.40;;;2.77;;
12122;SDS011;6125;59.628;17.852;2023-06-24T02:00:12;3.50;;;3.13;;
12122;SDS011;6125;59.628;17.852;2023-06-24T02:02:41;6.13;;;3.50;;
12122;SDS011;6125;59.628;17.852;2023-06-24T02:05:09;4.07;;;3.33;;
12122;SDS011;6125;59.628;17.852;2023-06-24T02:07:37;3.60;;;3.20;;
12122;SDS011;6125;59.628;17.852;2023-06-24T02:10:05;5.20;;;3.07;;
12122;SDS011;6125;59.628;17.852;2023-06-24T02:12:34;4.07;;;3.10;;
12122;SDS011;6125;59.628;17.852;2023-06-24T02:15:03;6.30;;;3.00;;
12122;SDS011;6125;59.628;17.852;2023-06-24T02:17:32;3.10;;;2.80;;
12122;SDS011;6125;59.628;17.852;2023-06-24T02:20:01;4.57;;;3.13;;
12122;SDS011;6125;59.628;17.852;2023-06-24T02:22:32;5.20;;;3.13;;
12122;SDS011;6125;59.628;17.852;2023-06-24T02:24:59;4.63;;;2.80;;
12122;SDS011;6125;59.628;17.852;2023-06-24T02:27:26;2.87;;;2.53;;
12122;SDS011;6125;59.628;17.852;2023-06-24T02:29:55;3.77;;;2.77;;
12122;SDS011;6125;59.628;17.852;2023-06-24T02:32:23;4.23;;;2.83;;
12122;SDS011;6125;59.628;17.852;2023-06-24T02:34:50;2.60;;;2.40;;
12122;SDS011;6125;59.628;17.852;2023-06-24T02:37:18;3.63;;;3.03;;
12122;SDS011;6125;59.628;17.852;2023-06-24T02:39:45;5.20;;;3.00;;
12122;SDS011;6125;59.628;17.852;2023-06-24T02:42:13;3.17;;;2.10;;
12122;SDS011;6125;59.628;17.852;2023-06-24T02:44:40;2.53;;;2.33;;
12122;SDS011;6125;59.628;17.852;2023-06-24T02:47:08;2.13;;;1.93;;
12122;SDS011;6125;59.628;17.852;2023-06-24T02:49:37;2.73;;;1.80;;
12122;SDS011;6125;59.628;17.852;2023-06-24T02:52:06;3.53;;;1.97;;
12122;SDS011;6125;59.628;17.852;2023-06-24T02:54:35;4.10;;;1.97;;
12122;SDS011;6125;59.628;17.852;2023-06-24T02:57:04;2.23;;;2.03;;
12122;SDS011;6125;59.628;17.852;2023-06-24T02:59:32;3.10;;;2.03;;
12122;SDS011;6125;59.628;17.852;2023-06-24T03:02:00;2.10;;;1.90;;
12122;SDS011;6125;59.628;17.852;2023-06-24T03:04:29;2.57;;;1.80;;
12122;SDS011;6125;59.628;17.852;2023-06-24T03:06:56;2.47;;;1.90;;
12122;SDS011;6125;59.628;17.852;2023-06-24T03:09:24;2.20;;;1.70;;
12122;SDS011;6125;59.628;17.852;2023-06-24T03:11:54;1.60;;;1.50;;
12122;SDS011;6125;59.628;17.852;2023-06-24T03:14:21;1.83;;;1.60;;
12122;SDS011;6125;59.628;17.852;2023-06-24T03:16:48;2.80;;;2.03;;
12122;SDS011;6125;59.628;17.852;2023-06-24T03:19:15;3.63;;;2.03;;
12122;SDS011;6125;59.628;17.852;2023-06-24T03:21:42;2.57;;;1.80;;
12122;SDS011;6125;59.628;17.852;2023-06-24T03:24:10;3.90;;;1.97;;
12122;SDS011;6125;59.628;17.852;2023-06-24T03:26:37;1.73;;;1.63;;
12122;SDS011;6125;59.628;17.852;2023-06-24T03:29:07;1.57;;;1.40;;
12122;SDS011;6125;59.628;17.852;2023-06-24T03:31:34;2.43;;;1.60;;
12122;SDS011;6125;59.628;17.852;2023-06-24T03:34:01;3.53;;;1.80;;
12122;SDS011;6125;59.628;17.852;2023-06-24T03:36:28;2.37;;;1.90;;
12122;SDS011;6125;59.628;17.852;2023-06-24T03:38:55;2.17;;;1.77;;
12122;SDS011;6125;59.628;17.852;2023-06-24T03:41:23;3.13;;;1.50;;
12122;SDS011;6125;59.628;17.852;2023-06-24T03:43:51;3.57;;;1.90;;
12122;SDS011;6125;59.628;17.852;2023-06-24T03:46:19;2.17;;;1.73;;
12122;SDS011;6125;59.628;17.852;2023-06-24T03:48:46;2.27;;;1.80;;
12122;SDS011;6125;59.628;17.852;2023-06-24T03:51:13;1.70;;;1.40;;
12122;SDS011;6125;59.628;17.852;2023-06-24T03:53:40;2.60;;;1.47;;
12122;SDS011;6125;59.628;17.852;2023-06-24T03:56:08;2.17;;;1.50;;
12122;SDS011;6125;59.628;17.852;2023-06-24T03:58:35;3.43;;;1.30;;
12122;SDS011;6125;59.628;17.852;2023-06-24T04:01:09;1.97;;;1.40;;
12122;SDS011;6125;59.628;17.852;2023-06-24T04:03:37;1.90;;;1.40;;
12122;SDS011;6125;59.628;17.852;2023-06-24T04:06:04;1.30;;;1.20;;
12122;SDS011;6125;59.628;17.852;2023-06-24T04:08:32;1.67;;;1.47;;
12122;SDS011;6125;59.628;17.852;2023-06-24T04:10:59;1.47;;;1.20;;
12122;SDS011;6125;59.628;17.852;2023-06-24T04:13:28;1.97;;;1.40;;
12122;SDS011;6125;59.628;17.852;2023-06-24T04:15:55;2.50;;;1.60;;
12122;SDS011;6125;59.628;17.852;2023-06-24T04:18:22;3.00;;;1.50;;
12122;SDS011;6125;59.628;17.852;2023-06-24T04:20:51;1.90;;;1.43;;
12122;SDS011;6125;59.628;17.852;2023-06-24T04:23:18;4.33;;;1.80;;
12122;SDS011;6125;59.628;17.852;2023-06-24T04:25:45;3.33;;;1.63;;
12122;SDS011;6125;59.628;17.852;2023-06-24T04:28:12;2.37;;;1.53;;
12122;SDS011;6125;59.628;17.852;2023-06-24T04:30:39;2.00;;;1.53;;
12122;SDS011;6125;59.628;17.852;2023-06-24T04:33:07;2.60;;;1.50;;
12122;SDS011;6125;59.628;17.852;2023-06-24T04:35:34;2.30;;;1.50;;
12122;SDS011;6125;59.628;17.852;2023-06-24T04:38:02;2.20;;;1.37;;
12122;SDS011;6125;59.628;17.852;2023-06-24T04:40:29;1.57;;;1.47;;
12122;SDS011;6125;59.628;17.852;2023-06-24T04:42:56;3.50;;;1.73;;
12122;SDS011;6125;59.628;17.852;2023-06-24T04:45:23;3.23;;;1.63;;
12122;SDS011;6125;59.628;17.852;2023-06-24T04:47:50;2.57;;;1.53;;
12122;SDS011;6125;59.628;17.852;2023-06-24T04:50:18;2.87;;;1.27;;
12122;SDS011;6125;59.628;17.852;2023-06-24T04:52:45;2.90;;;1.50;;
12122;SDS011;6125;59.628;17.852;2023-06-24T04:55:19;2.60;;;1.40;;
12122;SDS011;6125;59.628;17.852;2023-06-24T04:57:47;2.63;;;1.63;;
12122;SDS011;6125;59.628;17.852;2023-06-24T05:00:14;1.93;;;1.20;;
12122;SDS011;6125;59.628;17.852;2023-06-24T05:02:42;1.30;;;1.20;;
12122;SDS011;6125;59.628;17.852;2023-06-24T05:05:10;2.97;;;1.50;;
12122;SDS011;6125;59.628;17.852;2023-06-24T05:07:37;2.13;;;1.40;;
12122;SDS011;6125;59.628;17.852;2023-06-24T05:10:05;1.53;;;1.20;;
12122;SDS011;6125;59.628;17.852;2023-06-24T05:12:34;3.43;;;1.43;;
12122;SDS011;6125;59.628;17.852;2023-06-24T05:15:01;7.03;;;1.50;;
12122;SDS011;6125;59.628;17.852;2023-06-24T05:17:28;2.83;;;1.60;;
12122;SDS011;6125;59.628;17.852;2023-06-24T05:19:55;6.87;;;1.60;;
12122;SDS011;6125;59.628;17.852;2023-06-24T05:22:22;2.23;;;1.40;;
12122;SDS011;6125;59.628;17.852;2023-06-24T05:24:49;2.50;;;1.50;;
12122;SDS011;6125;59.628;17.852;2023-06-24T05:27:17;3.13;;;1.57;;
12122;SDS011;6125;59.628;17.852;2023-06-24T05:29:45;2.47;;;1.47;;
12122;SDS011;6125;59.628;17.852;2023-06-24T05:32:13;4.07;;;1.23;;
12122;SDS011;6125;59.628;17.852;2023-06-24T05:34:42;3.43;;;1.50;;
12122;SDS011;6125;59.628;17.852;2023-06-24T05:37:09;5.23;;;1.90;;
12122;SDS011;6125;59.628;17.852;2023-06-24T05:39:36;3.00;;;1.47;;
12122;SDS011;6125;59.628;17.852;2023-06-24T05:42:03;3.23;;;1.43;;
12122;SDS011;6125;59.628;17.852;2023-06-24T05:44:30;3.77;;;1.30;;
12122;SDS011;6125;59.628;17.852;2023-06-24T05:47:00;2.30;;;1.60;;
12122;SDS011;6125;59.628;17.852;2023-06-24T05:49:27;1.40;;;1.30;;
12122;SDS011;6125;59.628;17.852;2023-06-24T05:51:55;1.60;;;1.40;;
12122;SDS011;6125;59.628;17.852;2023-06-24T05:54:22;2.63;;;1.30;;
12122;SDS011;6125;59.628;17.852;2023-06-24T05:56:49;3.03;;;1.40;;
12122;SDS011;6125;59.628;17.852;2023-06-24T05:59:16;2.80;;;1.40;;
12122;SDS011;6125;59.628;17.852;2023-06-24T06:01:44;2.63;;;1.40;;
12122;SDS011;6125;59.628;17.852;2023-06-24T06:04:12;2.53;;;1.30;;
12122;SDS011;6125;59.628;17.852;2023-06-24T06:06:39;2.70;;;1.50;;
12122;SDS011;6125;59.628;17.852;2023-06-24T06:09:06;2.17;;;1.20;;
12122;SDS011;6125;59.628;17.852;2023-06-24T06:11:34;1.47;;;1.20;;
12122;SDS011;6125;59.628;17.852;2023-06-24T06:14:01;3.73;;;1.40;;
12122;SDS011;6125;59.628;17.852;2023-06-24T06:16:28;2.60;;;2.10;;
12122;SDS011;6125;59.628;17.852;2023-06-24T06:18:55;3.87;;;1.37;;
12122;SDS011;6125;59.628;17.852;2023-06-24T06:21:23;3.27;;;1.37;;
12122;SDS011;6125;59.628;17.852;2023-06-24T06:23:51;2.13;;;1.33;;
12122;SDS011;6125;59.628;17.852;2023-06-24T06:26:18;2.80;;;1.40;;
12122;SDS011;6125;59.628;17.852;2023-06-24T06:28:45;3.00;;;1.40;;
12122;SDS011;6125;59.628;17.852;2023-06-24T06:31:13;2.40;;;1.50;;
12122;SDS011;6125;59.628;17.852;2023-06-24T06:33:40;2.90;;;1.40;;
12122;SDS011;6125;59.628;17.852;2023-06-24T06:36:07;2.40;;;1.50;;
12122;SDS011;6125;59.628;17.852;2023-06-24T06:38:35;1.37;;;1.20;;
12122;SDS011;6125;59.628;17.852;2023-06-24T06:41:02;2.70;;;1.47;;
12122;SDS011;6125;59.628;17.852;2023-06-24T06:43:29;3.23;;;1.20;;
12122;SDS011;6125;59.628;17.852;2023-06-24T06:45:56;4.60;;;1.50;;
12122;SDS011;6125;59.628;17.852;2023-06-24T06:48:24;3.27;;;1.33;;
12122;SDS011;6125;59.628;17.852;2023-06-24T06:50:51;2.10;;;1.30;;
12122;SDS011;6125;59.628;17.852;2023-06-24T06:53:18;2.13;;;1.30;;
12122;SDS011;6125;59.628;17.852;2023-06-24T06:55:47;1.23;;;1.13;;
12122;SDS011;6125;59.628;17.852;2023-06-24T06:58:14;1.30;;;1.10;;
12122;SDS011;6125;59.628;17.852;2023-06-24T07:00:41;2.70;;;1.43;;
12122;SDS011;6125;59.628;17.852;2023-06-24T07:03:08;4.20;;;1.30;;
12122;SDS011;6125;59.628;17.852;2023-06-24T07:05:35;2.40;;;1.30;;
12122;SDS011;6125;59.628;17.852;2023-06-24T07:08:03;1.67;;;1.30;;
12122;SDS011;6125;59.628;17.852;2023-06-24T07:10:31;1.87;;;1.30;;
12122;SDS011;6125;59.628;17.852;2023-06-24T07:13:00;1.73;;;1.10;;
12122;SDS011;6125;59.628;17.852;2023-06-24T07:15:28;1.80;;;1.27;;
12122;SDS011;6125;59.628;17.852;2023-06-24T07:17:55;1.50;;;1.23;;
12122;SDS011;6125;59.628;17.852;2023-06-24T07:20:22;1.87;;;1.20;;
12122;SDS011;6125;59.628;17.852;2023-06-24T07:22:51;3.20;;;1.20;;
12122;SDS011;6125;59.628;17.852;2023-06-24T07:25:18;2.23;;;1.20;;
12122;SDS011;6125;59.628;17.852;2023-06-24T07:27:45;2.23;;;1.30;;
12122;SDS011;6125;59.628;17.852;2023-06-24T07:30:13;2.37;;;1.20;;
12122;SDS011;6125;59.628;17.852;2023-06-24T07:32:40;2.60;;;1.20;;
12122;SDS011;6125;59.628;17.852;2023-06-24T07:35:08;2.00;;;1.17;;
12122;SDS011;6125;59.628;17.852;2023-06-24T07:37:35;1.30;;;1.20;;
12122;SDS011;6125;59.628;17.852;2023-06-24T07:40:04;3.90;;;1.40;;
12122;SDS011;6125;59.628;17.852;2023-06-24T07:42:34;4.63;;;1.50;;
12122;SDS011;6125;59.628;17.852;2023-06-24T07:45:01;2.00;;;1.30;;
12122;SDS011;6125;59.628;17.852;2023-06-24T07:47:30;1.90;;;1.30;;
12122;SDS011;6125;59.628;17.852;2023-06-24T07:49:57;1.40;;;1.30;;
12122;SDS011;6125;59.628;17.852;2023-06-24T07:52:24;4.07;;;1.83;;
12122;SDS011;6125;59.628;17.852;2023-06-24T07:54:51;2.17;;;1.50;;
12122;SDS011;6125;59.628;17.852;2023-06-24T07:57:18;1.40;;;1.20;;
12122;SDS011;6125;59.628;17.852;2023-06-24T07:59:46;1.43;;;1.13;;
12122;SDS011;6125;59.628;17.852;2023-06-24T08:02:13;3.50;;;1.60;;
12122;SDS011;6125;59.628;17.852;2023-06-24T08:04:42;2.20;;;1.10;;
12122;SDS011;6125;59.628;17.852;2023-06-24T08:07:09;3.57;;;1.50;;
12122;SDS011;6125;59.628;17.852;2023-06-24T08:09:36;2.20;;;1.40;;
12122;SDS011;6125;59.628;17.852;2023-06-24T08:12:04;1.53;;;1.30;;
12122;SDS011;6125;59.628;17.852;2023-06-24T08:14:31;1.83;;;1.50;;
12122;SDS011;6125;59.628;17.852;2023-06-24T08:16:58;1.40;;;1.30;;
12122;SDS011;6125;59.628;17.852;2023-06-24T08:19:25;1.97;;;1.33;;
12122;SDS011;6125;59.628;17.852;2023-06-24T08:21:54;4.60;;;1.40;;
12122;SDS011;6125;59.628;17.852;2023-06-24T08:24:21;1.47;;;1.30;;
12122;SDS011;6125;59.628;17.852;2023-06-24T08:26:48;2.77;;;1.50;;
12122;SDS011;6125;59.628;17.852;2023-06-24T08:29:15;2.83;;;1.60;;
12122;SDS011;6125;59.628;17.852;2023-06-24T08:31:42;1.80;;;1.40;;
12122;SDS011;6125;59.628;17.852;2023-06-24T08:34:09;2.30;;;1.40;;
12122;SDS011;6125;59.628;17.852;2023-06-24T08:36:36;1.37;;;1.20;;
12122;SDS011;6125;59.628;17.852;2023-06-24T08:39:05;1.63;;;1.27;;
12122;SDS011;6125;59.628;17.852;2023-06-24T08:41:32;2.07;;;1.50;;
12122;SDS011;6125;59.628;17.852;2023-06-24T08:43:59;1.77;;;1.47;;
12122;SDS011;6125;59.628;17.852;2023-06-24T08:46:26;2.23;;;1.40;;
12122;SDS011;6125;59.628;17.852;2023-06-24T08:48:58;2.60;;;1.20;;
12122;SDS011;6125;59.628;17.852;2023-06-24T08:51:29;1.33;;;1.23;;
12122;SDS011;6125;59.628;17.852;2023-06-24T08:54:01;1.90;;;1.23;;
12122;SDS011;6125;59.628;17.852;2023-06-24T08:56:29;1.63;;;1.20;;
12122;SDS011;6125;59.628;17.852;2023-06-24T08:58:56;2.43;;;1.50;;
12122;SDS011;6125;59.628;17.852;2023-06-24T09:01:23;2.60;;;1.20;;
12122;SDS011;6125;59.628;17.852;2023-06-24T09:03:51;2.03;;;1.57;;
12122;SDS011;6125;59.628;17.852;2023-06-24T09:06:19;2.83;;;1.33;;
12122;SDS011;6125;59.628;17.852;2023-06-24T09:08:52;1.53;;;1.40;;
12122;SDS011;6125;59.628;17.852;2023-06-24T09:11:22;1.60;;;1.20;;
12122;SDS011;6125;59.628;17.852;2023-06-24T09:13:55;1.30;;;1.03;;
12122;SDS011;6125;59.628;17.852;2023-06-24T09:16:23;2.00;;;1.80;;
12122;SDS011;6125;59.628;17.852;2023-06-24T09:18:50;2.13;;;1.20;;
12122;SDS011;6125;59.628;17.852;2023-06-24T09:21:22;1.50;;;1.40;;
12122;SDS011;6125;59.628;17.852;2023-06-24T09:23:52;1.50;;;1.40;;
12122;SDS011;6125;59.628;17.852;2023-06-24T09:26:21;1.83;;;1.40;;
12122;SDS011;6125;59.628;17.852;2023-06-24T09:28:58;2.13;;;1.13;;
12122;SDS011;6125;59.628;17.852;2023-06-24T09:31:25;1.57;;;1.07;;
12122;SDS011;6125;59.628;17.852;2023-06-24T09:33:56;2.70;;;1.30;;
12122;SDS011;6125;59.628;17.852;2023-06-24T09:36:23;3.23;;;1.40;;
12122;SDS011;6125;59.628;17.852;2023-06-24T09:38:51;3.20;;;1.30;;
12122;SDS011;6125;59.628;17.852;2023-06-24T09:41:22;1.80;;;1.40;;
12122;SDS011;6125;59.628;17.852;2023-06-24T09:43:51;2.33;;;1.50;;
12122;SDS011;6125;59.628;17.852;2023-06-24T09:46:19;2.30;;;1.27;;
12122;SDS011;6125;59.628;17.852;2023-06-24T09:48:46;1.40;;;1.30;;
12122;SDS011;6125;59.628;17.852;2023-06-24T09:51:13;5.43;;;1.70;;
12122;SDS011;6125;59.628;17.852;2023-06-24T09:53:41;1.63;;;1.20;;
12122;SDS011;6125;59.628;17.852;2023-06-24T09:56:10;2.57;;;1.47;;
12122;SDS011;6125;59.628;17.852;2023-06-24T09:58:41;1.37;;;1.20;;
12122;SDS011;6125;59.628;17.852;2023-06-24T10:01:11;1.83;;;1.37;;
12122;SDS011;6125;59.628;17.852;2023-06-24T10:03:40;1.57;;;1.17;;
12122;SDS011;6125;59.628;17.852;2023-06-24T10:06:07;1.53;;;1.03;;
12122;SDS011;6125;59.628;17.852;2023-06-24T10:08:34;2.47;;;1.40;;
12122;SDS011;6125;59.628;17.852;2023-06-24T10:11:01;1.10;;;1.00;;
12122;SDS011;6125;59.628;17.852;2023-06-24T10:13:28;2.30;;;1.40;;
12122;SDS011;6125;59.628;17.852;2023-06-24T10:15:56;2.03;;;1.13;;
12122;SDS011;6125;59.628;17.852;2023-06-24T10:18:33;2.10;;;1.40;;
12122;SDS011;6125;59.628;17.852;2023-06-24T10:21:02;3.87;;;1.47;;
12122;SDS011;6125;59.628;17.852;2023-06-24T10:23:31;2.90;;;1.30;;
12122;SDS011;6125;59.628;17.852;2023-06-24T10:25:59;1.30;;;1.20;;
12122;SDS011;6125;59.628;17.852;2023-06-24T10:28:26;1.50;;;1.20;;
12122;SDS011;6125;59.628;17.852;2023-06-24T10:31:13;2.33;;;1.40;;
12122;SDS011;6125;59.628;17.852;2023-06-24T10:33:40;1.97;;;1.43;;
12122;SDS011;6125;59.628;17.852;2023-06-24T10:36:19;2.80;;;1.60;;
12122;SDS011;6125;59.628;17.852;2023-06-24T10:38:58;3.07;;;1.60;;
12122;SDS011;6125;59.628;17.852;2023-06-24T10:41:25;1.40;;;1.30;;
12122;SDS011;6125;59.628;17.852;2023-06-24T10:43:52;1.73;;;1.57;;
12122;SDS011;6125;59.628;17.852;2023-06-24T10:46:23;2.23;;;1.30;;
12122;SDS011;6125;59.628;17.852;2023-06-24T10:48:53;1.63;;;1.47;;
12122;SDS011;6125;59.628;17.852;2023-06-24T10:51:21;2.10;;;1.60;;
12122;SDS011;6125;59.628;17.852;2023-06-24T10:53:49;1.33;;;1.23;;
12122;SDS011;6125;59.628;17.852;2023-06-24T10:56:16;1.60;;;1.50;;
12122;SDS011;6125;59.628;17.852;2023-06-24T10:58:54;3.27;;;1.70;;
12122;SDS011;6125;59.628;17.852;2023-06-24T11:01:22;2.13;;;1.60;;
12122;SDS011;6125;59.628;17.852;2023-06-24T11:03:49;1.30;;;1.20;;
12122;SDS011;6125;59.628;17.852;2023-06-24T11:06:16;1.40;;;1.30;;
12122;SDS011;6125;59.628;17.852;2023-06-24T11:08:45;1.93;;;1.60;;
12122;SDS011;6125;59.628;17.852;2023-06-24T11:11:18;1.87;;;1.60;;
12122;SDS011;6125;59.628;17.852;2023-06-24T11:13:47;1.40;;;1.23;;
12122;SDS011;6125;59.628;17.852;2023-06-24T11:16:19;1.47;;;1.37;;
12122;SDS011;6125;59.628;17.852;2023-06-24T11:18:47;2.20;;;1.57;;
12122;SDS011;6125;59.628;17.852;2023-06-24T11:21:14;3.43;;;1.60;;
12122;SDS011;6125;59.628;17.852;2023-06-24T11:23:41;2.87;;;1.50;;
12122;SDS011;6125;59.628;17.852;2023-06-24T11:26:10;2.37;;;1.47;;
12122;SDS011;6125;59.628;17.852;2023-06-24T11:28:37;1.40;;;1.30;;
12122;SDS011;6125;59.628;17.852;2023-06-24T11:31:07;1.40;;;1.30;;
12122;SDS011;6125;59.628;17.852;2023-06-24T11:33:35;1.43;;;1.20;;
12122;SDS011;6125;59.628;17.852;2023-06-24T11:36:08;2.13;;;1.63;;
12122;SDS011;6125;59.628;17.852;2023-06-24T11:38:36;2.40;;;1.40;;
12122;SDS011;6125;59.628;17.852;2023-06-24T11:41:03;1.60;;;1.50;;
12122;SDS011;6125;59.628;17.852;2023-06-24T11:43:31;1.37;;;1.27;;
12122;SDS011;6125;59.628;17.852;2023-06-24T11:45:59;1.70;;;1.60;;
12122;SDS011;6125;59.628;17.852;2023-06-24T11:48:27;1.63;;;1.20;;
12122;SDS011;6125;59.628;17.852;2023-06-24T11:50:54;1.30;;;1.20;;
12122;SDS011;6125;59.628;17.852;2023-06-24T11:53:22;1.37;;;1.27;;
12122;SDS011;6125;59.628;17.852;2023-06-24T11:55:55;3.30;;;1.30;;
12122;SDS011;6125;59.628;17.852;2023-06-24T11:58:23;1.50;;;1.40;;
12122;SDS011;6125;59.628;17.852;2023-06-24T12:00:51;1.40;;;1.30;;
12122;SDS011;6125;59.628;17.852;2023-06-24T12:03:22;1.50;;;1.40;;
12122;SDS011;6125;59.628;17.852;2023-06-24T12:05:50;1.50;;;1.23;;
12122;SDS011;6125;59.628;17.852;2023-06-24T12:08:17;1.50;;;1.40;;
12122;SDS011;6125;59.628;17.852;2023-06-24T12:10:44;1.50;;;1.40;;
12122;SDS011;6125;59.628;17.852;2023-06-24T12:13:12;1.17;;;1.10;;
12122;SDS011;6125;59.628;17.852;2023-06-24T12:15:39;1.93;;;1.30;;
12122;SDS011;6125;59.628;17.852;2023-06-24T12:18:08;1.60;;;1.50;;
12122;SDS011;6125;59.628;17.852;2023-06-24T12:20:35;1.63;;;1.37;;
12122;SDS011;6125;59.628;17.852;2023-06-24T12:23:02;2.27;;;1.57;;
12122;SDS011;6125;59.628;17.852;2023-06-24T12:25:30;1.50;;;1.40;;
12122;SDS011;6125;59.628;17.852;2023-06-24T12:27:57;1.50;;;1.30;;
12122;SDS011;6125;59.628;17.852;2023-06-24T12:30:25;2.37;;;1.20;;
12122;SDS011;6125;59.628;17.852;2023-06-24T12:32:52;2.17;;;1.40;;
12122;SDS011;6125;59.628;17.852;2023-06-24T12:35:21;1.67;;;1.57;;
12122;SDS011;6125;59.628;17.852;2023-06-24T12:37:50;2.33;;;1.57;;
12122;SDS011;6125;59.628;17.852;2023-06-24T12:40:17;1.77;;;1.57;;
12122;SDS011;6125;59.628;17.852;2023-06-24T12:42:45;1.53;;;1.43;;
12122;SDS011;6125;59.628;17.852;2023-06-24T12:45:12;1.80;;;1.53;;
12122;SDS011;6125;59.628;17.852;2023-06-24T12:47:39;1.60;;;1.37;;
12122;SDS011;6125;59.628;17.852;2023-06-24T12:50:07;1.43;;;1.33;;
12122;SDS011;6125;59.628;17.852;2023-06-24T12:52:36;2.50;;;1.53;;
12122;SDS011;6125;59.628;17.852;2023-06-24T12:55:04;2.80;;;1.50;;
12122;SDS011;6125;59.628;17.852;2023-06-24T12:57:32;1.67;;;1.57;;
12122;SDS011;6125;59.628;17.852;2023-06-24T12:59:59;1.80;;;1.40;;
12122;SDS011;6125;59.628;17.852;2023-06-24T13:02:26;3.10;;;1.60;;
12122;SDS011;6125;59.628;17.852;2023-06-24T13:04:53;1.60;;;1.30;;
12122;SDS011;6125;59.628;17.852;2023-06-24T13:07:28;2.17;;;1.50;;
12122;SDS011;6125;59.628;17.852;2023-06-24T13:09:57;2.57;;;1.40;;
12122;SDS011;6125;59.628;17.852;2023-06-24T13:12:24;2.70;;;1.60;;
12122;SDS011;6125;59.628;17.852;2023-06-24T13:14:51;2.33;;;1.80;;
12122;SDS011;6125;59.628;17.852;2023-06-24T13:17:18;1.77;;;1.50;;
12122;SDS011;6125;59.628;17.852;2023-06-24T13:19:46;1.73;;;1.43;;
12122;SDS011;6125;59.628;17.852;2023-06-24T13:22:13;1.60;;;1.50;;
12122;SDS011;6125;59.628;17.852;2023-06-24T13:24:40;1.60;;;1.50;;
12122;SDS011;6125;59.628;17.852;2023-06-24T13:27:08;1.60;;;1.50;;
12122;SDS011;6125;59.628;17.852;2023-06-24T13:29:35;2.40;;;1.67;;
12122;SDS011;6125;59.628;17.852;2023-06-24T13:32:02;4.37;;;1.57;;
12122;SDS011;6125;59.628;17.852;2023-06-24T13:34:30;2.87;;;1.50;;
12122;SDS011;6125;59.628;17.852;2023-06-24T13:36:57;2.00;;;1.57;;
12122;SDS011;6125;59.628;17.852;2023-06-24T13:39:24;2.30;;;1.40;;
12122;SDS011;6125;59.628;17.852;2023-06-24T13:41:53;1.87;;;1.43;;
12122;SDS011;6125;59.628;17.852;2023-06-24T13:44:21;2.80;;;1.80;;
12122;SDS011;6125;59.628;17.852;2023-06-24T13:46:49;3.17;;;1.60;;
12122;SDS011;6125;59.628;17.852;2023-06-24T13:49:18;5.00;;;1.93;;
12122;SDS011;6125;59.628;17.852;2023-06-24T13:51:45;1.70;;;1.60;;
12122;SDS011;6125;59.628;17.852;2023-06-24T13:54:12;2.30;;;1.60;;
12122;SDS011;6125;59.628;17.852;2023-06-24T13:56:39;3.63;;;1.83;;
12122;SDS011;6125;59.628;17.852;2023-06-24T13:59:06;2.00;;;1.63;;
12122;SDS011;6125;59.628;17.852;2023-06-24T14:01:37;3.30;;;2.13;;
12122;SDS011;6125;59.628;17.852;2023-06-24T14:04:04;2.40;;;1.60;;
12122;SDS011;6125;59.628;17.852;2023-06-24T14:06:31;2.90;;;1.80;;
12122;SDS011;6125;59.628;17.852;2023-06-24T14:08:58;3.77;;;1.40;;
12122;SDS011;6125;59.628;17.852;2023-06-24T14:11:25;1.77;;;1.67;;
12122;SDS011;6125;59.628;17.852;2023-06-24T14:13:53;1.73;;;1.63;;
12122;SDS011;6125;59.628;17.852;2023-06-24T14:16:20;2.00;;;1.50;;
12122;SDS011;6125;59.628;17.852;2023-06-24T14:18:48;2.53;;;1.60;;
12122;SDS011;6125;59.628;17.852;2023-06-24T14:21:15;1.60;;;1.47;;
12122;SDS011;6125;59.628;17.852;2023-06-24T14:23:42;4.70;;;1.70;;
12122;SDS011;6125;59.628;17.852;2023-06-24T14:26:09;1.90;;;1.50;;
12122;SDS011;6125;59.628;17.852;2023-06-24T14:28:37;2.20;;;1.30;;
12122;SDS011;6125;59.628;17.852;2023-06-24T14:31:04;1.47;;;1.33;;
12122;SDS011;6125;59.628;17.852;2023-06-24T14:33:31;2.50;;;1.50;;
12122;SDS011;6125;59.628;17.852;2023-06-24T14:36:00;2.97;;;1.63;;
12122;SDS011;6125;59.628;17.852;2023-06-24T14:38:27;2.00;;;1.40;;
12122;SDS011;6125;59.628;17.852;2023-06-24T14:40:54;1.70;;;1.30;;
12122;SDS011;6125;59.628;17.852;2023-06-24T14:43:27;1.80;;;1.70;;
12122;SDS011;6125;59.628;17.852;2023-06-24T14:45:54;2.93;;;1.50;;
12122;SDS011;6125;59.628;17.852;2023-06-24T14:48:22;1.43;;;1.33;;
12122;SDS011;6125;59.628;17.852;2023-06-24T14:50:50;1.77;;;1.63;;
12122;SDS011;6125;59.628;17.852;2023-06-24T14:53:18;1.70;;;1.60;;
12122;SDS011;6125;59.628;17.852;2023-06-24T14:55:45;2.23;;;1.40;;